Cheboygan, Michigan
Current Conditions -  °F | °C
As of 10:16 AM on Thursday 23 Oct 2014 (Local Time) from KSLH Reporting Station
Clear Clear  
Wind Chill: 37°   Ceiling: Unl
Heat Index: 40°   Visibility: 10mi
Dew Point: 37°   Wind: 5mph
Humidity: 90%   Direction: 200°SSW
Pressure: 30.21"   Gusts: NA
Location:  45.65°N, 84.47°W
Report Text: KSLH 231416Z AUTO 20004KT 10SM CLR 04/02 A3021 RMK AO2 T00450030
Loading
Personal Weather Stations






























Interactive Weather Map
Tropical Storm Tracking
New forecast layout! Learn more

10-Day Weather Forecast

Advertisements
Track Severe Weather on mobile